Time;durP1;ratioP1;P1;durP2;ratioP2;P2;SDS_P1;SDS_P2;PMS_P1;PMS_P2;Temp;Humidity;BMP_temperature;BMP_pressure;BME280_temperature;BME280_humidity;BME280_pressure;Samples;Min_cycle;Max_cycle;Signal;HPM_P1;HPM_P2
2022/05/16 00:01:22;;;;;;;15.68;5.53;;;;;;;15.57;100.00;98014.50;4981132;28;20034;-55
2022/05/16 00:03:47;;;;;;;16.10;5.45;;;;;;;15.53;100.00;98015.63;4981692;28;20030;-53
2022/05/16 00:06:12;;;;;;;15.77;5.20;;;;;;;15.41;100.00;98013.72;4981090;28;20042;-55
2022/05/16 00:08:38;;;;;;;16.00;5.50;;;;;;;15.42;100.00;98010.19;4981272;28;20030;-54
2022/05/16 00:11:03;;;;;;;15.90;5.57;;;;;;;15.40;100.00;98009.41;4973256;28;20073;-54
2022/05/16 00:13:28;;;;;;;15.88;6.00;;;;;;;15.29;100.00;98001.31;4981212;28;20030;-54
2022/05/16 00:15:55;;;;;;;15.23;5.47;;;;;;;15.23;100.00;98008.63;4981237;28;20038;-56
2022/05/16 00:18:21;;;;;;;18.50;5.93;;;;;;;15.27;100.00;98004.03;4980719;28;20822;-54
2022/05/16 00:20:47;;;;;;;16.50;5.68;;;;;;;15.28;100.00;97997.03;4980555;28;20038;-54
2022/05/16 00:23:13;;;;;;;18.48;6.05;;;;;;;15.22;100.00;97993.81;4980694;28;20030;-55
2022/05/16 00:25:38;;;;;;;17.23;5.93;;;;;;;15.16;100.00;97994.19;4980364;28;20038;-54
2022/05/16 00:28:04;;;;;;;16.67;5.57;;;;;;;15.15;100.00;97997.75;4981040;28;20068;-54
2022/05/16 00:30:29;;;;;;;15.40;5.55;;;;;;;15.08;100.00;98003.47;4980892;28;20121;-54
2022/05/16 00:32:54;;;;;;;17.00;5.78;;;;;;;15.08;100.00;97998.22;4979225;28;20026;-53
2022/05/16 00:35:21;;;;;;;22.02;6.03;;;;;;;15.23;100.00;97999.91;4980226;28;20061;-57
2022/05/16 00:37:47;;;;;;;16.50;5.82;;;;;;;15.11;100.00;97995.38;4980512;28;20069;-56
2022/05/16 00:40:13;;;;;;;16.58;5.93;;;;;;;15.11;100.00;97991.00;4980189;28;20026;-55
2022/05/16 00:42:40;;;;;;;16.50;5.65;;;;;;;14.95;100.00;97996.31;4980187;28;20053;-54
2022/05/16 00:45:06;;;;;;;25.40;6.05;;;;;;;14.97;100.00;97994.44;4980682;28;20105;-57
2022/05/16 00:47:32;;;;;;;21.17;6.32;;;;;;;15.02;100.00;98002.06;4979534;28;20053;-57
2022/05/16 00:50:00;;;;;;;18.63;5.80;;;;;;;15.10;100.00;98006.84;4979854;28;20034;-56
2022/05/16 00:52:33;;;;;;;18.20;6.10;;;;;;;14.83;100.00;97997.88;4979808;28;20073;-54
2022/05/16 00:55:16;;;;;;;18.60;6.13;;;;;;;14.87;100.00;97995.06;4980543;28;20076;-56
2022/05/16 00:57:47;;;;;;;21.45;6.18;;;;;;;14.97;100.00;97988.34;4979594;28;20042;-56
2022/05/16 01:00:21;;;;;;;17.60;5.90;;;;;;;14.81;100.00;97978.75;4980259;28;20049;-54
2022/05/16 01:05:47;;;;;;;15.60;5.95;;;;;;;14.84;100.00;97993.47;4980158;28;20141;-54
2022/05/16 01:08:16;;;;;;;19.73;5.85;;;;;;;14.91;100.00;97988.72;4980185;28;20117;-56
2022/05/16 01:10:41;;;;;;;17.73;5.80;;;;;;;14.72;100.00;97984.53;4979479;28;20730;-56
2022/05/16 01:13:07;;;;;;;15.80;5.43;;;;;;;14.86;100.00;97988.13;4980287;28;20030;-57
2022/05/16 01:15:36;;;;;;;17.67;5.45;;;;;;;14.76;100.00;97986.03;4979701;28;20778;-54
2022/05/16 01:18:02;;;;;;;18.00;6.18;;;;;;;14.73;100.00;97993.25;4979412;28;20096;-55
2022/05/16 01:20:42;;;;;;;19.75;5.97;;;;;;;14.80;100.00;97984.09;4979258;28;20685;-54
2022/05/16 01:23:08;;;;;;;19.77;5.85;;;;;;;14.72;100.00;97995.03;4979668;28;20034;-55
2022/05/16 01:25:34;;;;;;;18.02;6.03;;;;;;;14.78;100.00;97986.78;4979655;28;20038;-53
2022/05/16 01:28:04;;;;;;;20.58;6.03;;;;;;;14.54;100.00;97986.41;4979462;28;20060;-55
2022/05/16 01:30:36;;;;;;;16.65;5.65;;;;;;;14.70;100.00;97991.63;4979051;28;20108;-55
2022/05/16 01:33:02;;;;;;;19.65;6.22;;;;;;;14.81;100.00;97988.38;4979762;28;20097;-53
2022/05/16 01:35:30;;;;;;;18.33;5.97;;;;;;;14.54;100.00;97991.66;4979706;28;20088;-54
2022/05/16 01:40:41;;;;;;;18.38;6.00;;;;;;;14.42;100.00;97977.44;4979155;28;20092;-56
2022/05/16 01:43:07;;;;;;;23.75;6.88;;;;;;;14.54;100.00;97975.91;4979646;28;20033;-54
2022/05/16 01:45:33;;;;;;;19.67;5.90;;;;;;;14.34;100.00;97979.66;4979115;28;20043;-54
2022/05/16 01:47:58;;;;;;;16.77;6.15;;;;;;;14.34;100.00;97974.41;4979355;28;20459;-55
2022/05/16 01:50:24;;;;;;;17.02;5.65;;;;;;;14.41;100.00;97965.28;4979075;28;20493;-55
2022/05/16 01:52:50;;;;;;;16.15;5.90;;;;;;;14.53;100.00;97968.13;4979400;28;20037;-54
2022/05/16 01:55:16;;;;;;;20.00;6.10;;;;;;;14.31;100.00;97974.59;4978670;28;20042;-56
2022/05/16 01:57:42;;;;;;;19.70;5.88;;;;;;;14.29;100.00;97978.25;4979229;28;20030;-53
2022/05/16 02:00:10;;;;;;;20.50;6.22;;;;;;;14.32;100.00;97973.66;4978294;28;20053;-55
2022/05/16 02:02:36;;;;;;;20.58;6.45;;;;;;;14.50;100.00;97965.66;4979491;28;20046;-56
2022/05/16 02:05:02;;;;;;;17.55;5.90;;;;;;;14.49;100.00;97971.84;4980032;28;20567;-54
2022/05/16 02:07:27;;;;;;;23.55;6.38;;;;;;;14.52;100.00;97971.66;4978765;28;20096;-55
2022/05/16 02:09:53;;;;;;;19.67;5.82;;;;;;;14.75;100.00;97973.00;4979265;28;20034;-54
2022/05/16 02:12:19;;;;;;;18.17;6.10;;;;;;;14.52;100.00;97972.53;4978600;28;20620;-55
2022/05/16 02:14:44;;;;;;;21.33;6.40;;;;;;;14.57;100.00;97967.88;4977414;28;20571;-56
2022/05/16 02:17:09;;;;;;;18.92;6.03;;;;;;;14.60;100.00;97972.94;4975766;28;20038;-54
2022/05/16 02:19:35;;;;;;;19.33;6.07;;;;;;;14.60;100.00;97970.31;4977857;28;20038;-54
2022/05/16 02:24:44;;;;;;;15.35;5.20;;;;;;;14.62;100.00;97973.69;4979087;28;20101;-56
2022/05/16 02:27:13;;;;;;;19.13;5.43;;;;;;;14.76;100.00;97965.03;4977077;28;20109;-54
2022/05/16 02:29:38;;;;;;;21.80;6.43;;;;;;;14.21;100.00;97973.44;4978856;28;20125;-55
2022/05/16 02:32:05;;;;;;;16.17;5.80;;;;;;;14.52;100.00;97966.41;4978578;28;20104;-54
2022/05/16 02:34:31;;;;;;;20.42;6.05;;;;;;;14.97;100.00;97962.06;4978554;28;20564;-54
2022/05/16 02:36:56;;;;;;;17.55;5.80;;;;;;;14.61;100.00;97971.16;4978130;28;20035;-54
2022/05/16 02:39:22;;;;;;;17.77;6.07;;;;;;;14.57;100.00;97970.50;4981175;28;20538;-56
2022/05/16 02:41:47;;;;;;;18.52;6.57;;;;;;;14.47;100.00;97969.31;4977316;28;20026;-54
2022/05/16 02:44:13;;;;;;;18.63;6.05;;;;;;;14.44;100.00;97965.06;4978510;28;20075;-55
2022/05/16 02:46:39;;;;;;;20.27;6.20;;;;;;;14.52;100.00;97961.16;4977533;28;20070;-55
2022/05/16 02:49:05;;;;;;;17.65;5.93;;;;;;;14.56;100.00;97967.94;4978296;28;20133;-55
2022/05/16 02:51:30;;;;;;;18.90;5.93;;;;;;;14.59;100.00;97975.66;4978259;28;20505;-54
2022/05/16 02:53:56;;;;;;;16.75;5.90;;;;;;;14.40;100.00;97968.81;4977688;28;20112;-55
2022/05/16 02:56:22;;;;;;;21.23;6.72;;;;;;;14.32;100.00;97970.16;4977998;28;20049;-54
2022/05/16 02:58:47;;;;;;;21.65;6.45;;;;;;;14.32;100.00;97970.16;4978740;28;20166;-53
2022/05/16 03:01:13;;;;;;;21.27;6.32;;;;;;;14.30;100.00;97954.53;4977970;28;20921;-56
2022/05/16 03:03:39;;;;;;;19.33;6.40;;;;;;;14.35;100.00;97957.72;4978680;28;20592;-54
2022/05/16 03:06:06;;;;;;;19.77;5.80;;;;;;;14.57;100.00;97956.50;4978316;28;20050;-56
2022/05/16 03:08:31;;;;;;;16.95;6.40;;;;;;;14.49;100.00;97956.13;4978532;28;20034;-53
2022/05/16 03:10:59;;;;;;;19.95;6.90;;;;;;;14.27;100.00;97946.84;4977583;28;20049;-55
2022/05/16 03:13:25;;;;;;;21.42;6.38;;;;;;;14.21;100.00;97945.41;4982000;28;20392;-55
2022/05/16 03:15:51;;;;;;;18.08;6.35;;;;;;;14.50;100.00;97945.53;4981604;28;20042;-55
2022/05/16 03:18:16;;;;;;;25.70;6.90;;;;;;;14.30;100.00;97951.91;4996420;28;20049;-54
2022/05/16 03:20:42;;;;;;;20.15;6.60;;;;;;;14.54;100.00;97961.91;4981609;28;20045;-55
2022/05/16 03:23:07;;;;;;;21.40;6.70;;;;;;;14.65;100.00;97963.03;4981823;28;20045;-54
2022/05/16 03:25:32;;;;;;;19.70;6.22;;;;;;;14.43;100.00;97962.56;4981075;28;20035;-54
2022/05/16 03:27:58;;;;;;;22.13;6.22;;;;;;;14.37;100.00;97965.50;4981409;28;20130;-56
2022/05/16 03:30:24;;;;;;;17.63;6.18;;;;;;;14.32;100.00;97955.28;4981246;28;20149;-55
2022/05/16 03:32:49;;;;;;;20.02;6.70;;;;;;;14.03;100.00;97970.88;4981441;28;20029;-57
2022/05/16 03:35:14;;;;;;;22.42;6.57;;;;;;;13.97;100.00;97965.13;4981147;28;20574;-56
2022/05/16 03:37:40;;;;;;;22.27;7.05;;;;;;;13.73;100.00;97960.31;4981650;28;20026;-54
2022/05/16 03:42:50;;;;;;;19.80;7.10;;;;;;;13.81;100.00;97947.63;4981537;28;20984;-54
2022/05/16 03:45:16;;;;;;;23.17;6.95;;;;;;;13.99;100.00;97944.94;4980666;28;20026;-54
2022/05/16 03:47:41;;;;;;;17.63;5.97;;;;;;;14.03;100.00;97949.91;4981267;28;20324;-54
2022/05/16 03:50:07;;;;;;;20.60;6.82;;;;;;;14.11;100.00;97946.00;4980675;28;20674;-56
2022/05/16 03:52:33;;;;;;;17.15;6.32;;;;;;;14.20;100.00;97950.72;4980997;28;20041;-54
2022/05/16 03:54:58;;;;;;;19.42;6.53;;;;;;;14.36;100.00;97956.81;4981211;28;20029;-54
2022/05/16 03:57:24;;;;;;;23.63;6.78;;;;;;;14.25;100.00;97965.28;4980550;28;20523;-54
2022/05/16 03:59:49;;;;;;;20.48;6.53;;;;;;;14.55;100.00;97966.25;4981047;28;20761;-56
2022/05/16 04:02:14;;;;;;;23.40;6.60;;;;;;;14.46;100.00;97957.97;4980988;28;20038;-56
2022/05/16 04:04:40;;;;;;;20.20;6.70;;;;;;;14.42;100.00;97961.69;4981526;28;20053;-56
2022/05/16 04:07:05;;;;;;;22.52;6.50;;;;;;;14.45;100.00;97961.53;4980318;28;20523;-56
2022/05/16 04:09:31;;;;;;;24.50;7.13;;;;;;;14.39;100.00;97961.88;4981068;28;20026;-54
2022/05/16 04:11:56;;;;;;;19.20;6.22;;;;;;;14.74;100.00;97971.28;4980871;28;20053;-54
2022/05/16 04:14:21;;;;;;;20.85;6.43;;;;;;;14.75;100.00;97968.59;4980888;28;20073;-55
2022/05/16 04:16:47;;;;;;;21.02;6.97;;;;;;;14.97;100.00;97956.81;4979956;28;20048;-56
2022/05/16 04:19:12;;;;;;;20.52;6.20;;;;;;;15.27;100.00;97953.28;4980893;28;20405;-54
2022/05/16 04:21:38;;;;;;;21.83;6.03;;;;;;;15.93;100.00;97965.00;4980262;28;20042;-54
2022/05/16 04:24:05;;;;;;;19.13;6.13;;;;;;;15.33;100.00;97979.16;4980797;28;20034;-54
2022/05/16 04:26:31;;;;;;;21.48;6.63;;;;;;;15.12;100.00;97976.06;4980039;28;20038;-53
2022/05/16 04:28:57;;;;;;;21.15;6.78;;;;;;;15.43;100.00;97975.06;4980468;28;20040;-56
2022/05/16 04:31:23;;;;;;;20.25;6.15;;;;;;;14.72;100.00;97983.66;4980244;28;20125;-56
2022/05/16 04:33:48;;;;;;;16.70;6.15;;;;;;;16.17;100.00;97962.56;4980844;28;20023;-55
2022/05/16 04:36:13;;;;;;;16.17;6.20;;;;;;;17.17;100.00;97965.66;4980094;28;20104;-55
2022/05/16 04:38:39;;;;;;;15.98;5.57;;;;;;;17.58;100.00;97969.88;4980849;28;20400;-54
2022/05/16 04:43:49;;;;;;;20.45;6.80;;;;;;;15.57;100.00;97985.56;4980246;28;20132;-54
2022/05/16 04:46:15;;;;;;;19.15;6.32;;;;;;;16.52;100.00;97976.09;4979803;28;20742;-56
2022/05/16 04:48:40;;;;;;;16.55;5.85;;;;;;;16.24;100.00;97974.41;4980601;28;20536;-54
2022/05/16 04:51:06;;;;;;;18.08;6.40;;;;;;;16.94;100.00;97981.25;4979673;28;20093;-56
2022/05/16 04:53:31;;;;;;;21.15;6.30;;;;;;;17.20;100.00;97982.13;4980325;28;20030;-54
2022/05/16 04:55:57;;;;;;;17.85;6.25;;;;;;;17.46;100.00;97983.00;4979515;28;20046;-55
2022/05/16 04:58:23;;;;;;;19.98;6.10;;;;;;;17.23;100.00;97983.72;4980131;28;20030;-55
2022/05/16 05:00:48;;;;;;;17.75;6.15;;;;;;;17.04;100.00;97992.00;4979361;28;20038;-55
2022/05/16 05:03:13;;;;;;;17.35;6.18;;;;;;;18.29;100.00;97992.97;4979760;28;20072;-57
2022/05/16 05:05:39;;;;;;;17.17;5.95;;;;;;;18.00;100.00;97996.88;4979253;28;20077;-55
2022/05/16 05:08:04;;;;;;;17.98;6.10;;;;;;;19.33;100.00;97987.94;4979957;28;20054;-54
2022/05/16 05:16:10;;;;;;;14.05;5.50;;;;;;;19.49;100.00;97995.53;4979369;28;20048;-56
2022/05/16 05:18:38;;;;;;;14.40;5.65;;;;;;;19.14;100.00;97999.94;4979968;28;20034;-56
2022/05/16 05:21:03;;;;;;;17.13;5.90;;;;;;;19.50;100.00;98000.72;4978773;28;20535;-55
2022/05/16 05:23:28;;;;;;;20.98;8.20;;;;;;;20.47;98.67;97998.34;4979379;28;20034;-55
2022/05/16 05:25:55;;;;;;;14.18;5.43;;;;;;;20.63;93.83;97997.13;4979059;28;20843;-55
2022/05/16 05:28:22;;;;;;;15.75;5.63;;;;;;;20.07;96.54;97995.41;4979040;28;20042;-55
2022/05/16 05:30:47;;;;;;;15.18;5.40;;;;;;;19.82;99.19;98000.84;4979431;28;20042;-54
2022/05/16 05:33:13;;;;;;;17.77;6.10;;;;;;;20.43;98.00;97994.25;4979414;28;20644;-57
2022/05/16 05:35:38;;;;;;;18.40;5.85;;;;;;;19.81;100.00;97988.59;4977810;28;20049;-55
2022/05/16 05:38:04;;;;;;;15.52;5.47;;;;;;;20.23;97.09;98001.16;4979299;28;20030;-56
2022/05/16 05:40:29;;;;;;;19.67;6.32;;;;;;;21.30;95.05;97995.91;4978599;28;20077;-54
2022/05/16 05:42:54;;;;;;;15.82;5.30;;;;;;;21.48;87.64;97980.28;4979445;28;20077;-58
2022/05/16 05:45:20;;;;;;;15.02;5.50;;;;;;;20.88;93.65;97983.53;4979099;28;20030;-57
2022/05/16 05:47:45;;;;;;;16.33;5.43;;;;;;;21.86;84.58;97989.38;4978855;28;20033;-57
2022/05/16 05:50:10;;;;;;;15.32;5.07;;;;;;;23.36;73.52;97984.75;4978396;28;20465;-57
2022/05/16 05:52:36;;;;;;;13.30;5.25;;;;;;;24.37;68.69;97993.72;4978796;28;20026;-57
2022/05/16 05:55:02;;;;;;;14.95;5.15;;;;;;;22.94;71.84;97991.25;4979315;28;20026;-57
2022/05/16 05:57:28;;;;;;;13.73;5.20;;;;;;;23.40;67.41;97991.47;4978108;28;20044;-54
2022/05/16 05:59:55;;;;;;;12.98;5.28;;;;;;;23.54;67.06;97993.66;4978878;28;20018;-54
2022/05/16 06:02:21;;;;;;;13.10;4.90;;;;;;;21.94;72.61;97984.22;4978211;28;20026;-55
2022/05/16 06:04:46;;;;;;;13.95;5.15;;;;;;;23.72;69.35;97976.94;4978376;28;20232;-54
2022/05/16 06:07:12;;;;;;;15.48;4.88;;;;;;;24.15;66.11;97978.13;4978096;28;20034;-54
2022/05/16 06:09:37;;;;;;;13.68;5.03;;;;;;;24.62;60.80;97972.66;4978872;28;20460;-53
2022/05/16 06:12:05;;;;;;;14.50;4.93;;;;;;;25.62;58.36;97980.41;4978126;28;20400;-55
2022/05/16 06:14:30;;;;;;;13.20;5.00;;;;;;;25.21;58.75;97981.78;4978904;28;20026;-56
2022/05/16 06:16:56;;;;;;;16.63;6.72;;;;;;;24.19;61.99;97984.88;4977558;28;20041;-56
2022/05/16 06:19:21;;;;;;;13.65;4.80;;;;;;;24.47;61.86;97977.66;4978055;28;20041;-54
2022/05/16 06:21:47;;;;;;;14.82;4.82;;;;;;;25.32;62.47;97985.25;4980742;28;20085;-55
2022/05/16 06:26:58;;;;;;;11.70;4.88;;;;;;;25.77;58.41;97977.00;4977856;28;20056;-56
2022/05/16 06:29:24;;;;;;;13.93;5.00;;;;;;;26.80;55.04;97985.81;4978487;28;20127;-55
2022/05/16 06:31:49;;;;;;;14.48;4.93;;;;;;;29.60;47.26;97980.81;4978076;28;20089;-55
2022/05/16 06:34:14;;;;;;;11.23;4.63;;;;;;;28.89;48.29;97985.66;4977652;28;20125;-56
2022/05/16 06:36:40;;;;;;;12.52;4.15;;;;;;;32.01;42.60;97987.56;4978000;28;20046;-54
2022/05/16 06:39:05;;;;;;;11.48;4.75;;;;;;;29.46;47.11;97995.09;4978199;28;20141;-54
2022/05/16 06:41:32;;;;;;;9.57;3.83;;;;;;;32.20;42.24;97999.53;4977966;28;20988;-55
2022/05/16 06:43:58;;;;;;;12.40;4.80;;;;;;;30.13;43.33;98000.38;4977863;28;20348;-58
2022/05/16 06:46:23;;;;;;;9.00;3.97;;;;;;;28.64;45.14;97994.75;4978525;28;20501;-56
2022/05/16 06:48:48;;;;;;;12.10;4.10;;;;;;;30.88;42.56;98003.72;4981921;28;20033;-55
2022/05/16 06:51:14;;;;;;;13.65;4.32;;;;;;;29.09;45.42;98016.38;4981595;28;20038;-55
2022/05/16 06:53:39;;;;;;;10.80;4.07;;;;;;;28.32;46.77;98013.69;4982440;28;20085;-57
2022/05/16 06:56:04;;;;;;;10.23;4.38;;;;;;;26.91;51.19;98012.28;4981556;28;20404;-55
2022/05/16 06:58:30;;;;;;;8.95;4.20;;;;;;;25.89;55.68;98011.44;4981990;28;20180;-55
2022/05/16 07:00:56;;;;;;;10.32;4.20;;;;;;;25.19;57.94;98009.66;4981464;28;20042;-55
2022/05/16 07:03:22;;;;;;;14.20;4.30;;;;;;;26.03;55.22;98010.88;4981672;28;20126;-54
2022/05/16 07:05:49;;;;;;;13.52;5.10;;;;;;;25.87;55.52;98018.78;4981059;28;20042;-55
2022/05/16 07:08:16;;;;;;;10.63;4.47;;;;;;;27.96;52.10;98015.00;4981820;28;20096;-55
2022/05/16 07:10:41;;;;;;;9.93;4.25;;;;;;;28.36;51.03;98020.34;4981158;28;20034;-55
2022/05/16 07:13:08;;;;;;;9.82;4.30;;;;;;;29.27;46.89;98013.41;4982012;28;20045;-55
2022/05/16 07:15:34;;;;;;;9.68;3.97;;;;;;;29.49;48.75;98016.22;4981327;28;20042;-55
2022/05/16 07:18:00;;;;;;;11.38;4.25;;;;;;;29.84;45.64;98005.81;4981667;28;20026;-54
2022/05/16 07:20:25;;;;;;;10.85;4.03;;;;;;;33.45;39.99;98009.09;4981210;28;20519;-57
2022/05/16 07:22:51;;;;;;;12.98;4.20;;;;;;;32.22;41.17;98007.38;4982007;28;20093;-54
2022/05/16 07:25:22;;;;;;;9.25;3.70;;;;;;;31.84;38.45;98015.91;4981341;28;20029;-55
2022/05/16 07:27:56;;;;;;;7.13;3.22;;;;;;;33.59;34.70;98008.03;4981654;28;20030;-57
2022/05/16 07:30:24;;;;;;;22.95;3.88;;;;;;;33.92;33.93;98008.00;4981007;28;20062;-56
2022/05/16 07:32:50;;;;;;;10.00;3.65;;;;;;;32.90;35.15;98003.84;4981001;28;20084;-57
2022/05/16 07:35:19;;;;;;;7.38;3.45;;;;;;;30.59;37.05;98014.63;4980704;28;20018;-55
2022/05/16 07:37:45;;;;;;;10.45;4.00;;;;;;;30.56;38.36;98022.03;4980854;28;20608;-55
2022/05/16 07:40:12;;;;;;;9.90;3.58;;;;;;;32.14;35.80;98011.09;4979726;28;20061;-54
2022/05/16 07:42:38;;;;;;;8.98;3.58;;;;;;;32.55;35.00;98014.75;4981135;28;20813;-55
2022/05/16 07:45:06;;;;;;;6.97;3.40;;;;;;;29.91;39.21;98014.78;4981726;28;20472;-57
2022/05/16 07:47:32;;;;;;;9.32;3.00;;;;;;;33.32;34.35;98015.34;4980681;28;20129;-56
2022/05/16 07:49:58;;;;;;;9.20;3.00;;;;;;;33.48;34.13;98009.50;4981097;28;20089;-55
2022/05/16 07:52:24;;;;;;;6.95;3.03;;;;;;;31.93;35.45;98017.41;4980562;28;20073;-55
2022/05/16 07:54:49;;;;;;;9.75;3.22;;;;;;;31.00;36.42;98004.06;4980490;28;20149;-56
2022/05/16 07:57:15;;;;;;;10.70;3.00;;;;;;;33.54;34.76;98000.53;4979888;28;20031;-57
2022/05/16 07:59:42;;;;;;;9.35;2.97;;;;;;;32.19;34.98;98011.34;4980372;28;20314;-54
2022/05/16 08:02:08;;;;;;;6.65;3.10;;;;;;;33.20;32.25;98015.97;4980542;28;20082;-55
2022/05/16 08:04:33;;;;;;;16.77;3.05;;;;;;;34.68;30.96;98011.84;4981096;28;20050;-56
2022/05/16 08:06:59;;;;;;;5.85;2.97;;;;;;;33.64;31.79;98015.50;4980441;28;20841;-55
2022/05/16 08:12:10;;;;;;;12.57;3.20;;;;;;;32.98;32.53;98011.78;4980447;28;20490;-58
2022/05/16 08:14:36;;;;;;;9.55;2.75;;;;;;;33.31;31.89;98014.50;4980536;28;20109;-56
2022/05/16 08:17:02;;;;;;;9.52;3.10;;;;;;;31.96;33.63;98008.91;4980531;28;20050;-56
2022/05/16 08:19:29;;;;;;;10.27;2.80;;;;;;;31.58;34.41;98011.16;4980934;28;20022;-55
2022/05/16 08:21:54;;;;;;;14.15;3.20;;;;;;;32.89;34.07;98013.00;4980264;28;20811;-56
2022/05/16 08:24:20;;;;;;;9.68;3.33;;;;;;;31.09;34.87;98018.22;4980750;28;20022;-58
2022/05/16 08:26:45;;;;;;;6.10;3.08;;;;;;;32.54;34.39;98013.13;4980440;28;20246;-56
2022/05/16 08:29:10;;;;;;;10.13;3.35;;;;;;;32.42;33.85;98019.13;4980619;28;20580;-56
2022/05/16 08:31:36;;;;;;;8.45;3.22;;;;;;;32.23;33.66;98020.69;4980265;28;20536;-58
2022/05/16 08:34:02;;;;;;;7.38;2.92;;;;;;;31.57;33.66;98018.44;4980136;28;20042;-56
2022/05/16 08:42:02;;;;;;;7.88;2.60;;;;;;;31.44;34.92;98018.31;4980159;28;20105;-57
2022/05/16 08:44:39;;;;;;;6.07;2.90;;;;;;;31.49;35.00;98023.97;4980147;28;20026;-55
2022/05/16 08:47:08;;;;;;;6.85;2.60;;;;;;;34.70;31.92;98017.91;4979578;28;20039;-58
2022/05/16 08:49:41;;;;;;;4.05;2.60;;;;;;;31.20;33.17;98025.78;4980142;28;20503;-57
2022/05/16 08:52:19;;;;;;;7.32;2.95;;;;;;;31.39;34.38;98024.28;4979827;28;20108;-57
2022/05/16 08:54:57;;;;;;;8.57;2.80;;;;;;;34.41;30.19;98027.41;4980068;28;20030;-56
2022/05/16 08:57:38;;;;;;;8.48;2.88;;;;;;;32.80;31.73;98021.28;4978969;28;20057;-56
2022/05/16 09:00:12;;;;;;;9.48;3.15;;;;;;;33.26;30.62;98019.72;4979618;28;20118;-58
2022/05/16 09:02:42;;;;;;;8.82;3.20;;;;;;;31.08;34.32;98032.72;4979639;28;20484;-57
2022/05/16 09:05:39;;;;;;;10.15;3.25;;;;;;;31.09;35.92;98042.47;4979256;28;20033;-57
2022/05/16 09:08:10;;;;;;;8.68;3.30;;;;;;;32.19;34.33;98034.78;4979007;28;20431;-56
2022/05/16 09:10:49;;;;;;;6.50;3.00;;;;;;;30.56;35.56;98035.47;4978303;28;20042;-56
2022/05/16 09:13:41;;;;;;;8.55;3.10;;;;;;;31.30;35.54;98047.00;4979884;28;20030;-56
2022/05/16 09:16:27;;;;;;;17.90;2.90;;;;;;;28.40;39.32;98043.97;4977016;28;20034;-56
2022/05/16 09:19:01;;;;;;;9.32;2.92;;;;;;;29.28;38.81;98043.78;4994713;28;20073;-56
2022/05/16 09:21:45;;;;;;;11.32;3.50;;;;;;;29.03;39.41;98047.47;4978692;28;20072;-57
2022/05/16 09:24:14;;;;;;;7.22;3.00;;;;;;;28.99;40.49;98048.03;4978108;28;20741;-57
2022/05/16 09:26:53;;;;;;;8.00;3.20;;;;;;;29.18;39.98;98046.72;4978783;28;20161;-56
2022/05/16 09:29:32;;;;;;;11.38;3.55;;;;;;;28.10;41.96;98053.66;4979550;28;20022;-57
2022/05/16 09:32:33;;;;;;;12.43;4.15;;;;;;;28.31;41.69;98057.63;4979034;28;20046;-57
2022/05/16 09:34:59;;;;;;;12.80;3.53;;;;;;;26.91;44.13;98058.59;4979048;28;20023;-56
2022/05/16 09:37:24;;;;;;;10.68;3.85;;;;;;;26.62;45.10;98056.38;4978603;28;20053;-57
2022/05/16 09:39:52;;;;;;;9.07;3.72;;;;;;;25.92;46.92;98067.25;4979276;28;20140;-57
2022/05/16 09:42:28;;;;;;;13.02;3.97;;;;;;;26.51;47.83;98075.38;4969220;28;20157;-57
2022/05/16 09:44:53;;;;;;;9.48;3.80;;;;;;;26.96;47.07;98076.00;4979234;28;20025;-55
2022/05/16 09:47:28;;;;;;;9.53;3.63;;;;;;;26.58;47.53;98079.09;4978785;28;20042;-57
2022/05/16 09:50:02;;;;;;;10.25;4.18;;;;;;;26.75;48.19;98079.16;4978711;28;20023;-56
2022/05/16 09:52:29;;;;;;;22.50;4.10;;;;;;;26.35;50.81;98079.66;4978397;28;20069;-55
2022/05/16 09:55:09;;;;;;;15.90;4.22;;;;;;;25.89;54.68;98089.75;4978902;28;20030;-57
2022/05/16 09:57:49;;;;;;;14.88;4.85;;;;;;;25.91;57.67;98093.09;4978318;28;20137;-55
2022/05/16 10:00:15;;;;;;;22.42;4.15;;;;;;;25.38;62.37;98091.41;4978404;28;20034;-57
2022/05/16 10:02:41;;;;;;;18.98;5.47;;;;;;;24.34;91.90;98094.47;4979093;28;20026;-55
2022/05/16 10:05:24;;;;;;;17.42;4.90;;;;;;;24.38;100.00;98093.19;4978428;28;20084;-55
2022/05/16 10:08:04;;;;;;;14.15;4.38;;;;;;;23.99;100.00;98107.50;4978868;28;20041;-56
2022/05/16 10:10:36;;;;;;;10.73;4.40;;;;;;;23.68;100.00;98113.03;4974716;28;20088;-56
2022/05/16 10:13:03;;;;;;;14.55;4.70;;;;;;;23.46;100.00;98106.19;4979125;28;20587;-55
2022/05/16 10:15:28;;;;;;;13.98;4.60;;;;;;;22.97;100.00;98105.31;4978639;28;20908;-56
2022/05/16 10:17:56;;;;;;;15.05;4.75;;;;;;;23.18;100.00;98115.88;4978206;28;20133;-56
2022/05/16 10:20:35;;;;;;;12.13;4.80;;;;;;;23.36;100.00;98112.50;4977784;28;20065;-56
2022/05/16 10:23:05;;;;;;;10.73;4.70;;;;;;;23.68;100.00;98115.69;4978516;28;20101;-57
2022/05/16 10:25:37;;;;;;;13.88;4.70;;;;;;;23.48;100.00;98117.53;4978449;28;20143;-57
2022/05/16 10:28:05;;;;;;;;;;;;;;;23.53;100.00;98118.94;4978539;28;20058;-57
2022/05/16 10:33:24;;;;;;;16.58;5.15;;;;;;;23.50;100.00;98103.25;4978181;28;20016;-56
2022/05/16 10:33:26;;;;;;;14.95;4.90;;;;;;;23.98;100.00;98108.47;4977941;28;20088;-58
2022/05/16 10:35:57;;;;;;;15.40;4.57;;;;;;;24.09;100.00;98107.47;4978287;28;20042;-56
2022/05/16 10:38:38;;;;;;;13.63;4.47;;;;;;;23.26;100.00;98102.69;4977604;28;20513;-57
2022/05/16 10:41:10;;;;;;;11.38;4.45;;;;;;;24.38;100.00;98093.19;4977749;28;20030;-56
2022/05/16 10:43:56;;;;;;;;;;;;;;;24.60;100.00;98083.97;4979255;28;20030;-56
2022/05/16 10:46:33;;;;;;;14.40;4.30;;;;;;;24.12;100.00;98087.69;4977481;28;19924;-55
2022/05/16 10:49:16;;;;;;;15.68;4.50;;;;;;;23.91;100.00;98099.38;4978055;28;20027;-56
2022/05/16 10:51:55;;;;;;;15.60;4.78;;;;;;;23.35;100.00;98100.19;4978080;28;20046;-55
2022/05/16 10:54:27;;;;;;;20.23;4.97;;;;;;;22.91;100.00;98093.41;4978243;28;20030;-56
2022/05/16 10:57:13;;;;;;;8.85;4.10;;;;;;;23.53;100.00;98100.31;4977838;28;20034;-55
2022/05/16 10:59:44;;;;;;;13.93;4.53;;;;;;;23.43;100.00;98102.97;4978303;28;20592;-55
2022/05/16 11:02:27;;;;;;;14.93;4.55;;;;;;;23.58;100.00;98111.34;4978116;28;20038;-55
2022/05/16 11:05:28;;;;;;;14.38;3.90;;;;;;;24.96;100.00;98108.00;4976705;28;20026;-55
2022/05/16 11:08:10;;;;;;;15.53;5.00;;;;;;;24.51;100.00;98106.16;4977945;28;20707;-56
2022/05/16 11:10:49;;;;;;;15.23;5.25;;;;;;;24.66;100.00;98102.03;4977939;28;20285;-57
2022/05/16 11:13:25;;;;;;;14.77;5.43;;;;;;;27.40;77.72;98100.66;4978150;28;20512;-56
2022/05/16 11:15:51;;;;;;;16.80;5.47;;;;;;;25.97;84.41;98102.34;4977480;28;20512;-56
2022/05/16 11:18:28;;;;;;;13.33;5.17;;;;;;;25.47;95.27;98095.81;4978097;28;20026;-55
2022/05/16 11:21:02;;;;;;;13.30;4.47;;;;;;;25.62;88.34;98097.94;4977980;28;20428;-55
2022/05/16 11:23:39;;;;;;;10.07;4.28;;;;;;;25.76;86.06;98094.69;4978093;28;20030;-57
2022/05/16 11:26:39;;;;;;;9.93;4.10;;;;;;;25.53;91.39;98095.22;4977608;28;20781;-56
2022/05/16 11:29:23;;;;;;;14.48;4.00;;;;;;;26.60;80.88;98093.16;4957469;28;20130;-58
2022/05/16 11:31:58;;;;;;;16.20;4.90;;;;;;;26.38;79.50;98083.03;4978156;28;20030;-55
2022/05/16 11:34:41;;;;;;;13.85;4.15;;;;;;;26.14;82.59;98082.75;4979833;28;20030;-57
2022/05/16 11:37:21;;;;;;;9.82;4.20;;;;;;;26.62;81.22;98085.81;4981090;28;20048;-56
2022/05/16 11:40:00;;;;;;;12.38;4.00;;;;;;;27.04;76.86;98078.72;4980502;28;20042;-55
2022/05/16 11:42:34;;;;;;;10.75;4.60;;;;;;;27.25;77.43;98075.53;4980988;28;20038;-55
2022/05/16 11:45:21;;;;;;;10.90;4.00;;;;;;;28.36;68.25;98074.84;4981283;28;20059;-57
2022/05/16 11:47:55;;;;;;;10.55;4.22;;;;;;;27.67;72.01;98069.16;4981459;28;20050;-56
2022/05/16 11:50:35;;;;;;;10.70;4.70;;;;;;;27.09;73.63;98065.63;4980835;28;20041;-56
2022/05/16 11:53:19;;;;;;;15.98;4.55;;;;;;;27.80;73.28;98064.09;4981050;28;20026;-57
2022/05/16 12:01:32;;;;;;;9.50;4.43;;;;;;;27.17;71.81;98059.47;4980701;28;20077;-57
2022/05/16 12:04:22;;;;;;;11.57;4.28;;;;;;;28.52;66.65;98043.59;4981147;28;20122;-56
2022/05/16 12:06:53;;;;;;;10.30;4.28;;;;;;;28.44;70.11;98037.25;4980059;28;20139;-56